WXM80 ListenWXM80 Stop

You find our weather info also at:

UK Metoffice

WeatherCloud

Weather Underground

Northeastern Weather Network

AWEKAS

Citizen Weather Observer Program (CWOP)

HAMweather, WeatherForYou, PWS Weather


Weather Underground History page Text

Daily Summary for August 13, 2017 Units:  Both    English   Metric
« Previous Day
Next Day »
Daily Weekly Monthly Yearly Custom
  High: Low: Average:
Temperature: 89.4 °F /  31.9 °C 68.3 °F /  20.2 °C 78 °F /  25.6 °C
Dew Point: 72.1 °F /  22.3 °C 64.0 °F /  17.8 °C 68.7 °F /  20.4 °C
Humidity: 97 % 46 % 76 %
Wind Speed: 4.4 mph /  7.1 km/h - 0.9 mph /  1.4 km/h
Wind Gust: 10.4 mph /  16.7 km/h - -
Wind:- - West
Pressure: 29.97 in /  1014.8 hPa 29.78 in /  1008.4 hPa -
Precipitation: 0.00 in /  0 mm    
Historical Graphs
 
 
Tabular Data for August 13, 2017
Time Temperature Dew Point Pressure Wind Wind Speed Wind Gust Humidity Rainfall Rate (Hourly)
00:02 73.4 °F /  23 °C 71.3 °F /  21.8 °C 29.82 in /  1009.7 hPa Calm   3.5 mph /  5.6 km/h 93 % 0.00 in /  0 mm
00:07 73.4 °F /  23 °C 71.3 °F /  21.8 °C 29.83 in /  1010 hPa SW 1.7 mph /  2.7 km/h 3.0 mph /  4.8 km/h 93 % 0.00 in /  0 mm
00:13 73.5 °F /  23.1 °C 71.4 °F /  21.9 °C 29.82 in /  1009.7 hPa Calm   1.2 mph /  1.9 km/h 93 % 0.00 in /  0 mm
00:18 73.5 °F /  23.1 °C 71.4 °F /  21.9 °C 29.82 in /  1009.7 hPa SE 0.1 mph /  0.2 km/h 1.2 mph /  1.9 km/h 93 % 0.00 in /  0 mm
00:23 73.5 °F /  23.1 °C 71.4 °F /  21.9 °C 29.82 in /  1009.7 hPa Calm     93 % 0.00 in /  0 mm
00:28 73.5 °F /  23.1 °C 71.4 °F /  21.9 °C 29.83 in /  1010 hPa WSW 0.2 mph /  0.3 km/h 2.0 mph /  3.2 km/h 93 % 0.00 in /  0 mm
00:33 73.6 °F /  23.1 °C 71.4 °F /  21.9 °C 29.83 in /  1010 hPa Calm   2.3 mph /  3.7 km/h 93 % 0.00 in /  0 mm
00:38 73.6 °F /  23.1 °C 71.4 °F /  21.9 °C 29.82 in /  1009.7 hPa Calm   1.2 mph /  1.9 km/h 93 % 0.00 in /  0 mm
00:43 73.7 °F /  23.2 °C 71.5 °F /  21.9 °C 29.82 in /  1009.7 hPa Calm     93 % 0.00 in /  0 mm
00:48 73.7 °F /  23.2 °C 71.5 °F /  21.9 °C 29.82 in /  1009.7 hPa Calm   1.2 mph /  1.9 km/h 93 % 0.00 in /  0 mm
00:53 73.8 °F /  23.2 °C 71.6 °F /  22 °C 29.82 in /  1009.7 hPa SE 0.1 mph /  0.2 km/h 1.2 mph /  1.9 km/h 93 % 0.00 in /  0 mm
00:58 73.8 °F /  23.2 °C 71.6 °F /  22 °C 29.82 in /  1009.7 hPa Calm     93 % 0.00 in /  0 mm
01:03 73.8 °F /  23.2 °C 71.6 °F /  22 °C 29.81 in /  1009.4 hPa SSE 1.1 mph /  1.8 km/h 3.5 mph /  5.6 km/h 93 % 0.00 in /  0 mm
01:08 73.8 °F /  23.2 °C 71.6 °F /  22 °C 29.82 in /  1009.7 hPa Calm   1.2 mph /  1.9 km/h 93 % 0.00 in /  0 mm
01:13 73.8 °F /  23.2 °C 71.6 °F /  22 °C 29.82 in /  1009.7 hPa Calm     93 % 0.00 in /  0 mm
01:18 73.8 °F /  23.2 °C 71.6 °F /  22 °C 29.82 in /  1009.7 hPa SE 0.4 mph /  0.6 km/h 2.3 mph /  3.7 km/h 93 % 0.00 in /  0 mm
01:23 73.8 °F /  23.2 °C 71.6 °F /  22 °C 29.81 in /  1009.4 hPa Calm   1.2 mph /  1.9 km/h 93 % 0.00 in /  0 mm
01:28 73.8 °F /  23.2 °C 71.6 °F /  22 °C 29.81 in /  1009.4 hPa Calm     93 % 0.00 in /  0 mm
01:33 73.7 °F /  23.2 °C 71.2 °F /  21.8 °C 29.82 in /  1009.7 hPa SE 0.2 mph /  0.3 km/h 1.2 mph /  1.9 km/h 92 % 0.00 in /  0 mm
01:38 73.6 °F /  23.1 °C 71.1 °F /  21.7 °C 29.82 in /  1009.7 hPa Calm     92 % 0.00 in /  0 mm
01:43 73.6 °F /  23.1 °C 71.1 °F /  21.7 °C 29.82 in /  1009.7 hPa SSE 0.2 mph /  0.3 km/h 1.2 mph /  1.9 km/h 92 % 0.00 in /  0 mm
01:48 73.5 °F /  23.1 °C 71.4 °F /  21.9 °C 29.82 in /  1009.7 hPa SSE 0.3 mph /  0.5 km/h 1.0 mph /  1.6 km/h 93 % 0.00 in /  0 mm
01:53 73.5 °F /  23.1 °C 71.4 °F /  21.9 °C 29.81 in /  1009.4 hPa Calm     93 % 0.00 in /  0 mm
01:58 73.5 °F /  23.1 °C 71.4 °F /  21.9 °C 29.81 in /  1009.4 hPa Calm     93 % 0.00 in /  0 mm
02:03 73.4 °F /  23 °C 71.3 °F /  21.8 °C 29.81 in /  1009.4 hPa Calm     93 % 0.00 in /  0 mm
02:08 73.4 °F /  23 °C 71.3 °F /  21.8 °C 29.81 in /  1009.4 hPa South 0.1 mph /  0.2 km/h 1.2 mph /  1.9 km/h 93 % 0.00 in /  0 mm
02:13 73.4 °F /  23 °C 71.3 °F /  21.8 °C 29.81 in /  1009.4 hPa Calm   2.3 mph /  3.7 km/h 93 % 0.00 in /  0 mm
02:18 73.4 °F /  23 °C 71.3 °F /  21.8 °C 29.81 in /  1009.4 hPa Calm     93 % 0.00 in /  0 mm
02:23 73.4 °F /  23 °C 71.3 °F /  21.8 °C 29.81 in /  1009.4 hPa West 0.2 mph /  0.3 km/h 1.2 mph /  1.9 km/h 93 % 0.00 in /  0 mm
02:29 73.4 °F /  23 °C 71.3 °F /  21.8 °C 29.80 in /  1009 hPa West 0.1 mph /  0.2 km/h 1.2 mph /  1.9 km/h 93 % 0.00 in /  0 mm
02:34 73.4 °F /  23 °C 71.6 °F /  22 °C 29.80 in /  1009 hPa Calm     94 % 0.00 in /  0 mm
02:39 73.4 °F /  23 °C 71.6 °F /  22 °C 29.80 in /  1009 hPa Calm   1.2 mph /  1.9 km/h 94 % 0.00 in /  0 mm
02:44 73.3 °F /  22.9 °C 71.5 °F /  21.9 °C 29.80 in /  1009 hPa Calm     94 % 0.00 in /  0 mm
02:49 73.3 °F /  22.9 °C 71.2 °F /  21.8 °C 29.80 in /  1009 hPa Calm     93 % 0.00 in /  0 mm
02:54 73.3 °F /  22.9 °C 71.2 °F /  21.8 °C 29.80 in /  1009 hPa Calm     93 % 0.00 in /  0 mm
02:59 73.2 °F /  22.9 °C 71.1 °F /  21.7 °C 29.80 in /  1009 hPa Calm     93 % 0.00 in /  0 mm
03:04 73.1 °F /  22.8 °C 71.0 °F /  21.7 °C 29.80 in /  1009 hPa Calm     93 % 0.00 in /  0 mm
03:09 73.0 °F /  22.8 °C 70.9 °F /  21.6 °C 29.80 in /  1009 hPa Calm     93 % 0.00 in /  0 mm
03:14 72.9 °F /  22.7 °C 70.8 °F /  21.6 °C 29.79 in /  1008.7 hPa Calm     93 % 0.00 in /  0 mm
03:19 72.8 °F /  22.7 °C 70.7 °F /  21.5 °C 29.80 in /  1009 hPa Calm     93 % 0.00 in /  0 mm
03:24 72.8 °F /  22.7 °C 70.7 °F /  21.5 °C 29.79 in /  1008.7 hPa Calm     93 % 0.00 in /  0 mm
03:29 72.6 °F /  22.6 °C 70.5 °F /  21.4 °C 29.79 in /  1008.7 hPa Calm     93 % 0.00 in /  0 mm
03:35 72.5 °F /  22.5 °C 70.4 °F /  21.3 °C 29.79 in /  1008.7 hPa West 0.2 mph /  0.3 km/h 1.0 mph /  1.6 km/h 93 % 0.00 in /  0 mm
03:40 72.4 °F /  22.4 °C 70.3 °F /  21.3 °C 29.79 in /  1008.7 hPa Calm   2.3 mph /  3.7 km/h 93 % 0.00 in /  0 mm
03:45 72.3 °F /  22.4 °C 70.2 °F /  21.2 °C 29.79 in /  1008.7 hPa Calm     93 % 0.00 in /  0 mm
03:50 72.2 °F /  22.3 °C 70.1 °F /  21.2 °C 29.79 in /  1008.7 hPa Calm     93 % 0.00 in /  0 mm
03:55 72.1 °F /  22.3 °C 70.0 °F /  21.1 °C 29.79 in /  1008.7 hPa West 0.8 mph /  1.3 km/h 2.3 mph /  3.7 km/h 93 % 0.00 in /  0 mm
04:00 72.1 °F /  22.3 °C 70.0 °F /  21.1 °C 29.79 in /  1008.7 hPa WSW 0.7 mph /  1.1 km/h 3.5 mph /  5.6 km/h 93 % 0.00 in /  0 mm
04:05 72.0 °F /  22.2 °C 69.9 °F /  21.1 °C 29.79 in /  1008.7 hPa Calm   1.2 mph /  1.9 km/h 93 % 0.00 in /  0 mm
04:10 72.0 °F /  22.2 °C 70.2 °F /  21.2 °C 29.78 in /  1008.4 hPa Calm   1.2 mph /  1.9 km/h 94 % 0.00 in /  0 mm
04:15 71.9 °F /  22.2 °C 70.1 °F /  21.2 °C 29.79 in /  1008.7 hPa WSW 0.1 mph /  0.2 km/h 2.3 mph /  3.7 km/h 94 % 0.00 in /  0 mm
04:20 71.9 °F /  22.2 °C 70.1 °F /  21.2 °C 29.79 in /  1008.7 hPa WSW 0.2 mph /  0.3 km/h 2.3 mph /  3.7 km/h 94 % 0.00 in /  0 mm
04:25 71.8 °F /  22.1 °C 70.0 °F /  21.1 °C 29.79 in /  1008.7 hPa Calm     94 % 0.00 in /  0 mm
04:30 71.8 °F /  22.1 °C 70.0 °F /  21.1 °C 29.79 in /  1008.7 hPa Calm     94 % 0.00 in /  0 mm
04:35 71.7 °F /  22.1 °C 69.9 °F /  21.1 °C 29.79 in /  1008.7 hPa Calm   1.2 mph /  1.9 km/h 94 % 0.00 in /  0 mm
04:40 71.6 °F /  22 °C 69.8 °F /  21 °C 29.79 in /  1008.7 hPa Calm     94 % 0.00 in /  0 mm
04:45 71.5 °F /  21.9 °C 69.7 °F /  20.9 °C 29.79 in /  1008.7 hPa Calm     94 % 0.00 in /  0 mm
04:50 71.4 °F /  21.9 °C 69.6 °F /  20.9 °C 29.79 in /  1008.7 hPa Calm     94 % 0.00 in /  0 mm
04:55 71.3 °F /  21.8 °C 69.5 °F /  20.8 °C 29.79 in /  1008.7 hPa Calm     94 % 0.00 in /  0 mm
05:00 71.2 °F /  21.8 °C 69.4 °F /  20.8 °C 29.79 in /  1008.7 hPa Calm     94 % 0.00 in /  0 mm
05:05 71.1 °F /  21.7 °C 69.3 °F /  20.7 °C 29.79 in /  1008.7 hPa Calm     94 % 0.00 in /  0 mm
05:10 71.0 °F /  21.7 °C 69.2 °F /  20.7 °C 29.80 in /  1009 hPa Calm     94 % 0.00 in /  0 mm
05:15 71.0 °F /  21.7 °C 69.2 °F /  20.7 °C 29.80 in /  1009 hPa Calm     94 % 0.00 in /  0 mm
05:20 70.9 °F /  21.6 °C 69.1 °F /  20.6 °C 29.80 in /  1009 hPa Calm     94 % 0.00 in /  0 mm
05:25 70.8 °F /  21.6 °C 69.0 °F /  20.6 °C 29.80 in /  1009 hPa Calm     94 % 0.00 in /  0 mm
05:30 70.8 °F /  21.6 °C 69.0 °F /  20.6 °C 29.80 in /  1009 hPa WSW 0.1 mph /  0.2 km/h 1.2 mph /  1.9 km/h 94 % 0.00 in /  0 mm
05:35 70.7 °F /  21.5 °C 68.9 °F /  20.5 °C 29.80 in /  1009 hPa Calm     94 % 0.00 in /  0 mm
05:36 70.7 °F /  21.5 °C 68.9 °F /  20.5 °C 29.80 in /  1009 hPa Calm   2.0 mph /  3.2 km/h 94 % 0.00 in /  0 mm
05:41 70.7 °F /  21.5 °C 68.9 °F /  20.5 °C 29.81 in /  1009.4 hPa Calm   1.0 mph /  1.6 km/h 94 % 0.00 in /  0 mm
05:46 70.6 °F /  21.4 °C 68.8 °F /  20.4 °C 29.81 in /  1009.4 hPa Calm   1.0 mph /  1.6 km/h 94 % 0.00 in /  0 mm
05:51 70.6 °F /  21.4 °C 68.8 °F /  20.4 °C 29.81 in /  1009.4 hPa Calm     94 % 0.00 in /  0 mm
05:56 70.5 °F /  21.4 °C 68.7 °F /  20.4 °C 29.81 in /  1009.4 hPa Calm     94 % 0.00 in /  0 mm
06:01 70.4 °F /  21.3 °C 68.9 °F /  20.5 °C 29.81 in /  1009.4 hPa Calm     95 % 0.00 in /  0 mm
06:06 70.4 °F /  21.3 °C 68.9 °F /  20.5 °C 29.81 in /  1009.4 hPa Calm     95 % 0.00 in /  0 mm
06:11 70.3 °F /  21.3 °C 68.8 °F /  20.4 °C 29.82 in /  1009.7 hPa Calm     95 % 0.00 in /  0 mm
06:16 70.3 °F /  21.3 °C 68.8 °F /  20.4 °C 29.81 in /  1009.4 hPa WSW 0.3 mph /  0.5 km/h 2.3 mph /  3.7 km/h 95 % 0.00 in /  0 mm
06:18 70.3 °F /  21.3 °C 68.8 °F /  20.4 °C 29.82 in /  1009.7 hPa Calm     95 % 0.00 in /  0 mm
06:23 70.3 °F /  21.3 °C 68.8 °F /  20.4 °C 29.82 in /  1009.7 hPa Calm   1.2 mph /  1.9 km/h 95 % 0.00 in /  0 mm
06:28 70.3 °F /  21.3 °C 68.8 °F /  20.4 °C 29.82 in /  1009.7 hPa Calm   2.3 mph /  3.7 km/h 95 % 0.00 in /  0 mm
06:33 70.3 °F /  21.3 °C 68.8 °F /  20.4 °C 29.82 in /  1009.7 hPa Calm   1.2 mph /  1.9 km/h 95 % 0.00 in /  0 mm
06:38 70.4 °F /  21.3 °C 69.2 °F /  20.7 °C 29.82 in /  1009.7 hPa WSW 0.3 mph /  0.5 km/h 1.2 mph /  1.9 km/h 96 % 0.00 in /  0 mm
06:43 70.4 °F /  21.3 °C 69.2 °F /  20.7 °C 29.82 in /  1009.7 hPa Calm     96 % 0.00 in /  0 mm
06:48 70.5 °F /  21.4 °C 69.3 °F /  20.7 °C 29.82 in /  1009.7 hPa Calm   1.2 mph /  1.9 km/h 96 % 0.00 in /  0 mm
06:53 70.5 °F /  21.4 °C 69.3 °F /  20.7 °C 29.82 in /  1009.7 hPa Calm     96 % 0.00 in /  0 mm
06:58 70.6 °F /  21.4 °C 69.4 °F /  20.8 °C 29.82 in /  1009.7 hPa Calm     96 % 0.00 in /  0 mm
07:03 70.7 °F /  21.5 °C 69.5 °F /  20.8 °C 29.82 in /  1009.7 hPa WSW 0.5 mph /  0.8 km/h 2.3 mph /  3.7 km/h 96 % 0.00 in /  0 mm
07:08 70.8 °F /  21.6 °C 69.6 °F /  20.9 °C 29.82 in /  1009.7 hPa WNW 1.8 mph /  2.9 km/h 4.0 mph /  6.4 km/h 96 % 0.00 in /  0 mm
07:13 70.9 °F /  21.6 °C 69.7 °F /  20.9 °C 29.82 in /  1009.7 hPa West 2.1 mph /  3.4 km/h 4.0 mph /  6.4 km/h 96 % 0.00 in /  0 mm
07:18 71.2 °F /  21.8 °C 70.3 °F /  21.3 °C 29.82 in /  1009.7 hPa WNW 1.1 mph /  1.8 km/h 3.5 mph /  5.6 km/h 97 % 0.00 in /  0 mm
07:23 71.4 °F /  21.9 °C 70.5 °F /  21.4 °C 29.83 in /  1010 hPa West 1.7 mph /  2.7 km/h 3.5 mph /  5.6 km/h 97 % 0.00 in /  0 mm
07:28 71.6 °F /  22 °C 70.7 °F /  21.5 °C 29.83 in /  1010 hPa West 0.3 mph /  0.5 km/h 2.3 mph /  3.7 km/h 97 % 0.00 in /  0 mm
07:33 71.8 °F /  22.1 °C 70.9 °F /  21.6 °C 29.83 in /  1010 hPa West 1.7 mph /  2.7 km/h 3.0 mph /  4.8 km/h 97 % 0.00 in /  0 mm
07:38 72.0 °F /  22.2 °C 71.1 °F /  21.7 °C 29.83 in /  1010 hPa WNW 0.6 mph /  1 km/h 3.5 mph /  5.6 km/h 97 % 0.00 in /  0 mm
07:43 72.1 °F /  22.3 °C 71.2 °F /  21.8 °C 29.83 in /  1010 hPa West 2.2 mph /  3.5 km/h 3.5 mph /  5.6 km/h 97 % 0.00 in /  0 mm
07:48 72.2 °F /  22.3 °C 71.3 °F /  21.8 °C 29.83 in /  1010 hPa WNW 1.2 mph /  1.9 km/h 3.5 mph /  5.6 km/h 97 % 0.00 in /  0 mm
07:53 72.2 °F /  22.3 °C 71.3 °F /  21.8 °C 29.83 in /  1010 hPa West 2.6 mph /  4.2 km/h 4.0 mph /  6.4 km/h 97 % 0.00 in /  0 mm
07:58 72.3 °F /  22.4 °C 71.4 °F /  21.9 °C 29.83 in /  1010 hPa WNW 0.6 mph /  1 km/h 3.5 mph /  5.6 km/h 97 % 0.00 in /  0 mm
08:03 72.3 °F /  22.4 °C 71.4 °F /  21.9 °C 29.84 in /  1010.4 hPa WNW 1.3 mph /  2.1 km/h 4.6 mph /  7.4 km/h 97 % 0.00 in /  0 mm
08:08 72.3 °F /  22.4 °C 71.4 °F /  21.9 °C 29.84 in /  1010.4 hPa WNW 3.3 mph /  5.3 km/h 3.5 mph /  5.6 km/h 97 % 0.00 in /  0 mm
08:13 72.3 °F /  22.4 °C 71.4 °F /  21.9 °C 29.84 in /  1010.4 hPa West 1.4 mph /  2.3 km/h 5.0 mph /  8 km/h 97 % 0.00 in /  0 mm
08:18 72.3 °F /  22.4 °C 71.4 °F /  21.9 °C 29.84 in /  1010.4 hPa Calm   1.2 mph /  1.9 km/h 97 % 0.00 in /  0 mm
08:23 72.4 °F /  22.4 °C 71.2 °F /  21.8 °C 29.84 in /  1010.4 hPa West 0.8 mph /  1.3 km/h 4.6 mph /  7.4 km/h 96 % 0.00 in /  0 mm
08:29 72.4 °F /  22.4 °C 71.2 °F /  21.8 °C 29.84 in /  1010.4 hPa NW 0.2 mph /  0.3 km/h 3.5 mph /  5.6 km/h 96 % 0.00 in /  0 mm
08:34 72.5 °F /  22.5 °C 71.3 °F /  21.8 °C 29.85 in /  1010.7 hPa WNW 0.8 mph /  1.3 km/h 2.3 mph /  3.7 km/h 96 % 0.00 in /  0 mm
08:39 72.5 °F /  22.5 °C 71.3 °F /  21.8 °C 29.85 in /  1010.7 hPa West 2.3 mph /  3.7 km/h 6.0 mph /  9.7 km/h 96 % 0.00 in /  0 mm
08:44 72.5 °F /  22.5 °C 71.0 °F /  21.7 °C 29.85 in /  1010.7 hPa WNW 2.6 mph /  4.2 km/h 4.6 mph /  7.4 km/h 95 % 0.00 in /  0 mm
08:49 72.6 °F /  22.6 °C 71.1 °F /  21.7 °C 29.85 in /  1010.7 hPa NW 3.1 mph /  5 km/h 4.6 mph /  7.4 km/h 95 % 0.00 in /  0 mm
08:54 72.6 °F /  22.6 °C 71.1 °F /  21.7 °C 29.85 in /  1010.7 hPa WNW 0.2 mph /  0.3 km/h 1.2 mph /  1.9 km/h 95 % 0.00 in /  0 mm
08:59 72.8 °F /  22.7 °C 71.0 °F /  21.7 °C 29.85 in /  1010.7 hPa WNW 2.6 mph /  4.2 km/h 6.0 mph /  9.7 km/h 94 % 0.00 in /  0 mm
09:04 72.9 °F /  22.7 °C 71.1 °F /  21.7 °C 29.85 in /  1010.7 hPa Calm   2.3 mph /  3.7 km/h 94 % 0.00 in /  0 mm
09:05 72.9 °F /  22.7 °C 71.1 °F /  21.7 °C 29.85 in /  1010.7 hPa WNW 1.0 mph /  1.6 km/h 5.0 mph /  8 km/h 94 % 0.00 in /  0 mm
09:10 73.1 °F /  22.8 °C 71.0 °F /  21.7 °C 29.85 in /  1010.7 hPa NW 3.0 mph /  4.8 km/h 5.8 mph /  9.3 km/h 93 % 0.00 in /  0 mm
09:15 73.2 °F /  22.9 °C 71.1 °F /  21.7 °C 29.85 in /  1010.7 hPa SW 1.3 mph /  2.1 km/h 3.5 mph /  5.6 km/h 93 % 0.00 in /  0 mm
09:20 73.4 °F /  23 °C 70.9 °F /  21.6 °C 29.86 in /  1011.1 hPa NW 1.6 mph /  2.6 km/h 3.5 mph /  5.6 km/h 92 % 0.00 in /  0 mm
09:25 73.5 °F /  23.1 °C 70.7 °F /  21.5 °C 29.85 in /  1010.7 hPa NNW 2.0 mph /  3.2 km/h 4.6 mph /  7.4 km/h 91 % 0.00 in /  0 mm
09:30 73.7 °F /  23.2 °C 70.6 °F /  21.4 °C 29.85 in /  1010.7 hPa WNW 2.6 mph /  4.2 km/h 3.5 mph /  5.6 km/h 90 % 0.00 in /  0 mm
09:35 73.9 °F /  23.3 °C 70.8 °F /  21.6 °C 29.85 in /  1010.7 hPa NNW 2.1 mph /  3.4 km/h 3.5 mph /  5.6 km/h 90 % 0.00 in /  0 mm
09:40 74.1 °F /  23.4 °C 71.0 °F /  21.7 °C 29.86 in /  1011.1 hPa WNW 1.2 mph /  1.9 km/h 3.5 mph /  5.6 km/h 90 % 0.00 in /  0 mm
09:45 74.4 °F /  23.6 °C 70.9 °F /  21.6 °C 29.85 in /  1010.7 hPa West 2.8 mph /  4.5 km/h 4.6 mph /  7.4 km/h 89 % 0.00 in /  0 mm
09:50 74.7 °F /  23.7 °C 70.6 °F /  21.4 °C 29.85 in /  1010.7 hPa WNW 0.7 mph /  1.1 km/h 3.5 mph /  5.6 km/h 87 % 0.00 in /  0 mm
09:55 75.2 °F /  24 °C 70.7 °F /  21.5 °C 29.86 in /  1011.1 hPa North 2.1 mph /  3.4 km/h 4.6 mph /  7.4 km/h 86 % 0.00 in /  0 mm
10:00 75.7 °F /  24.3 °C 70.9 °F /  21.6 °C 29.85 in /  1010.7 hPa NW 3.1 mph /  5 km/h 6.9 mph /  11.1 km/h 85 % 0.00 in /  0 mm
10:05 76.4 °F /  24.7 °C 71.6 °F /  22 °C 29.86 in /  1011.1 hPa NW 0.5 mph /  0.8 km/h 3.5 mph /  5.6 km/h 85 % 0.00 in /  0 mm
10:10 77.3 °F /  25.2 °C 71.4 °F /  21.9 °C 29.86 in /  1011.1 hPa WNW 1.6 mph /  2.6 km/h 3.5 mph /  5.6 km/h 82 % 0.00 in /  0 mm
10:15 78.3 °F /  25.7 °C 71.6 °F /  22 °C 29.86 in /  1011.1 hPa NNW 0.4 mph /  0.6 km/h 1.2 mph /  1.9 km/h 80 % 0.00 in /  0 mm
10:20 79.1 °F /  26.2 °C 70.9 °F /  21.6 °C 29.86 in /  1011.1 hPa NNE 3.5 mph /  5.6 km/h 4.6 mph /  7.4 km/h 76 % 0.00 in /  0 mm
10:25 79.9 °F /  26.6 °C 71.7 °F /  22.1 °C 29.86 in /  1011.1 hPa NW 1.9 mph /  3.1 km/h 3.5 mph /  5.6 km/h 76 % 0.00 in /  0 mm
10:30 80.6 °F /  27 °C 70.7 °F /  21.5 °C 29.86 in /  1011.1 hPa West 3.1 mph /  5 km/h 7.0 mph /  11.3 km/h 72 % 0.00 in /  0 mm
10:35 81.3 °F /  27.4 °C 71.4 °F /  21.9 °C 29.86 in /  1011.1 hPa West 2.3 mph /  3.7 km/h 6.9 mph /  11.1 km/h 72 % 0.00 in /  0 mm
10:40 81.8 °F /  27.7 °C 71.5 °F /  21.9 °C 29.87 in /  1011.4 hPa NNW 0.8 mph /  1.3 km/h 2.3 mph /  3.7 km/h 71 % 0.00 in /  0 mm
10:45 82.4 °F /  28 °C 71.2 °F /  21.8 °C 29.86 in /  1011.1 hPa WNW 1.8 mph /  2.9 km/h 4.0 mph /  6.4 km/h 69 % 0.00 in /  0 mm
10:50 83.0 °F /  28.3 °C 70.5 °F /  21.4 °C 29.87 in /  1011.4 hPa North 3.6 mph /  5.8 km/h 4.0 mph /  6.4 km/h 66 % 0.00 in /  0 mm
10:55 83.6 °F /  28.7 °C 71.0 °F /  21.7 °C 29.87 in /  1011.4 hPa North 1.6 mph /  2.6 km/h 5.0 mph /  8 km/h 66 % 0.00 in /  0 mm
11:00 84.2 °F /  29 °C 71.6 °F /  22 °C 29.87 in /  1011.4 hPa NW 1.2 mph /  1.9 km/h 3.5 mph /  5.6 km/h 66 % 0.00 in /  0 mm
11:06 84.5 °F /  29.2 °C 71.0 °F /  21.7 °C 29.87 in /  1011.4 hPa NNW 2.5 mph /  4 km/h 4.6 mph /  7.4 km/h 64 % 0.00 in /  0 mm
11:11 84.8 °F /  29.3 °C 71.3 °F /  21.8 °C 29.87 in /  1011.4 hPa NNW 2.0 mph /  3.2 km/h 7.0 mph /  11.3 km/h 64 % 0.00 in /  0 mm
11:13 85.0 °F /  29.4 °C 70.5 °F /  21.4 °C 29.87 in /  1011.4 hPa WNW 3.6 mph /  5.8 km/h 5.8 mph /  9.3 km/h 62 % 0.00 in /  0 mm
11:18 85.3 °F /  29.6 °C 71.7 °F /  22.1 °C 29.87 in /  1011.4 hPa North 1.0 mph /  1.6 km/h 3.5 mph /  5.6 km/h 64 % 0.00 in /  0 mm
11:23 85.7 °F /  29.8 °C 71.7 °F /  22.1 °C 29.87 in /  1011.4 hPa WNW 2.7 mph /  4.3 km/h 4.0 mph /  6.4 km/h 63 % 0.00 in /  0 mm
11:28 86.3 °F /  30.2 °C 70.8 °F /  21.6 °C 29.87 in /  1011.4 hPa WNW 3.8 mph /  6.1 km/h 4.6 mph /  7.4 km/h 60 % 0.00 in /  0 mm
11:33 86.5 °F /  30.3 °C 71.5 °F /  21.9 °C 29.87 in /  1011.4 hPa NNW 1.2 mph /  1.9 km/h 3.5 mph /  5.6 km/h 61 % 0.00 in /  0 mm
11:38 86.8 °F /  30.4 °C 71.2 °F /  21.8 °C 29.87 in /  1011.4 hPa NW 1.5 mph /  2.4 km/h 4.6 mph /  7.4 km/h 60 % 0.00 in /  0 mm
11:43 87.1 °F /  30.6 °C 71.0 °F /  21.7 °C 29.87 in /  1011.4 hPa WNW 2.9 mph /  4.7 km/h 4.0 mph /  6.4 km/h 59 % 0.00 in /  0 mm
11:49 87.4 °F /  30.8 °C 70.8 °F /  21.6 °C 29.87 in /  1011.4 hPa NW 1.4 mph /  2.3 km/h 3.5 mph /  5.6 km/h 58 % 0.00 in /  0 mm
11:54 87.8 °F /  31 °C 71.2 °F /  21.8 °C 29.87 in /  1011.4 hPa North 1.3 mph /  2.1 km/h 3.5 mph /  5.6 km/h 58 % 0.00 in /  0 mm
11:59 88.2 °F /  31.2 °C 69.5 °F /  20.8 °C 29.87 in /  1011.4 hPa WNW 3.5 mph /  5.6 km/h 4.6 mph /  7.4 km/h 54 % 0.00 in /  0 mm
12:04 88.5 °F /  31.4 °C 70.8 °F /  21.6 °C 29.87 in /  1011.4 hPa WNW 2.5 mph /  4 km/h 4.6 mph /  7.4 km/h 56 % 0.00 in /  0 mm
12:09 88.8 °F /  31.6 °C 72.1 °F /  22.3 °C 29.87 in /  1011.4 hPa WNW 1.8 mph /  2.9 km/h 3.5 mph /  5.6 km/h 58 % 0.00 in /  0 mm
12:14 89.0 °F /  31.7 °C 70.7 °F /  21.5 °C 29.87 in /  1011.4 hPa West 2.8 mph /  4.5 km/h 4.6 mph /  7.4 km/h 55 % 0.00 in /  0 mm
12:19 89.1 °F /  31.7 °C 69.7 °F /  20.9 °C 29.87 in /  1011.4 hPa NNW 0.1 mph /  0.2 km/h 3.5 mph /  5.6 km/h 53 % 0.00 in /  0 mm
12:24 89.2 °F /  31.8 °C 70.9 °F /  21.6 °C 29.86 in /  1011.1 hPa NW 3.9 mph /  6.3 km/h 6.9 mph /  11.1 km/h 55 % 0.00 in /  0 mm
12:29 89.2 °F /  31.8 °C 69.8 °F /  21 °C 29.86 in /  1011.1 hPa WNW 1.0 mph /  1.6 km/h 8.1 mph /  13 km/h 53 % 0.00 in /  0 mm
12:34 89.1 °F /  31.7 °C 70.3 °F /  21.3 °C 29.86 in /  1011.1 hPa NNE 0.2 mph /  0.3 km/h 3.5 mph /  5.6 km/h 54 % 0.00 in /  0 mm
12:39 89.1 °F /  31.7 °C 70.8 °F /  21.6 °C 29.86 in /  1011.1 hPa North 3.4 mph /  5.5 km/h 6.9 mph /  11.1 km/h 55 % 0.00 in /  0 mm
12:44 89.0 °F /  31.7 °C 70.2 °F /  21.2 °C 29.86 in /  1011.1 hPa West 3.6 mph /  5.8 km/h 7.0 mph /  11.3 km/h 54 % 0.00 in /  0 mm
12:49 89.1 °F /  31.7 °C 69.7 °F /  20.9 °C 29.86 in /  1011.1 hPa NNW 1.6 mph /  2.6 km/h 3.5 mph /  5.6 km/h 53 % 0.00 in /  0 mm
12:54 89.2 °F /  31.8 °C 70.9 °F /  21.6 °C 29.87 in /  1011.4 hPa North 1.7 mph /  2.7 km/h 3.5 mph /  5.6 km/h 55 % 0.00 in /  0 mm
12:59 89.2 °F /  31.8 °C 72.0 °F /  22.2 °C 29.86 in /  1011.1 hPa West 2.9 mph /  4.7 km/h 4.6 mph /  7.4 km/h 57 % 0.00 in /  0 mm
13:04 89.4 °F /  31.9 °C 70.6 °F /  21.4 °C 29.87 in /  1011.4 hPa WNW 4.1 mph /  6.6 km/h 4.1 mph /  6.6 km/h 54 % 0.00 in /  0 mm
13:09 89.4 °F /  31.9 °C 71.1 °F /  21.7 °C 29.87 in /  1011.4 hPa WNW 2.9 mph /  4.7 km/h 5.8 mph /  9.3 km/h 55 % 0.00 in /  0 mm
13:15 89.3 °F /  31.8 °C 70.5 °F /  21.4 °C 29.87 in /  1011.4 hPa WNW 4.3 mph /  6.9 km/h 5.8 mph /  9.3 km/h 54 % 0.00 in /  0 mm
13:20 89.4 °F /  31.9 °C 70.0 °F /  21.1 °C 29.87 in /  1011.4 hPa West 2.0 mph /  3.2 km/h 5.8 mph /  9.3 km/h 53 % 0.00 in /  0 mm
13:25 89.4 °F /  31.9 °C 70.0 °F /  21.1 °C 29.87 in /  1011.4 hPa WNW 4.4 mph /  7.1 km/h 10.4 mph /  16.7 km/h 53 % 0.00 in /  0 mm
13:30 89.2 °F /  31.8 °C 69.3 °F /  20.7 °C 29.87 in /  1011.4 hPa North 3.0 mph /  4.8 km/h 5.8 mph /  9.3 km/h 52 % 0.00 in /  0 mm
13:35 89.2 °F /  31.8 °C 70.4 °F /  21.3 °C 29.87 in /  1011.4 hPa NW 1.3 mph /  2.1 km/h 6.9 mph /  11.1 km/h 54 % 0.00 in /  0 mm
13:40 89.3 °F /  31.8 °C 70.5 °F /  21.4 °C 29.88 in /  1011.7 hPa NNE 1.0 mph /  1.6 km/h 3.5 mph /  5.6 km/h 54 % 0.00 in /  0 mm
13:45 89.3 °F /  31.8 °C 71.0 °F /  21.7 °C 29.87 in /  1011.4 hPa NW 3.0 mph /  4.8 km/h 6.9 mph /  11.1 km/h 55 % 0.00 in /  0 mm
13:50 89.2 °F /  31.8 °C 69.3 °F /  20.7 °C 29.88 in /  1011.7 hPa NNE 3.0 mph /  4.8 km/h 6.9 mph /  11.1 km/h 52 % 0.00 in /  0 mm
13:55 89.3 °F /  31.8 °C 69.4 °F /  20.8 °C 29.88 in /  1011.7 hPa NNE 3.2 mph /  5.1 km/h 4.6 mph /  7.4 km/h 52 % 0.00 in /  0 mm
14:00 89.4 °F /  31.9 °C 71.1 °F /  21.7 °C 29.88 in /  1011.7 hPa North 1.6 mph /  2.6 km/h 5.0 mph /  8 km/h 55 % 0.00 in /  0 mm
14:05 89.2 °F /  31.8 °C 68.7 °F /  20.4 °C 29.88 in /  1011.7 hPa NW 2.5 mph /  4 km/h 5.8 mph /  9.3 km/h 51 % 0.00 in /  0 mm
14:10 89.1 °F /  31.7 °C 68.6 °F /  20.3 °C 29.88 in /  1011.7 hPa NNW 0.8 mph /  1.3 km/h 5.8 mph /  9.3 km/h 51 % 0.00 in /  0 mm
14:15 89.0 °F /  31.7 °C 70.2 °F /  21.2 °C 29.88 in /  1011.7 hPa North 1.9 mph /  3.1 km/h 3.5 mph /  5.6 km/h 54 % 0.00 in /  0 mm
14:20 89.1 °F /  31.7 °C 69.7 °F /  20.9 °C 29.88 in /  1011.7 hPa NNE 2.1 mph /  3.4 km/h 3.5 mph /  5.6 km/h 53 % 0.00 in /  0 mm
14:25 88.9 °F /  31.6 °C 69.0 °F /  20.6 °C 29.88 in /  1011.7 hPa NNE 2.0 mph /  3.2 km/h 3.5 mph /  5.6 km/h 52 % 0.00 in /  0 mm
14:30 88.5 °F /  31.4 °C 68.6 °F /  20.3 °C 29.88 in /  1011.7 hPa NW 3.3 mph /  5.3 km/h 4.6 mph /  7.4 km/h 52 % 0.00 in /  0 mm
14:35 88.6 °F /  31.4 °C 68.7 °F /  20.4 °C 29.88 in /  1011.7 hPa NW 2.7 mph /  4.3 km/h 3.5 mph /  5.6 km/h 52 % 0.00 in /  0 mm
14:41 88.6 °F /  31.4 °C 68.2 °F /  20.1 °C 29.88 in /  1011.7 hPa NW 2.0 mph /  3.2 km/h 6.0 mph /  9.7 km/h 51 % 0.00 in /  0 mm
14:46 88.8 °F /  31.6 °C 68.9 °F /  20.5 °C 29.88 in /  1011.7 hPa NNW 2.0 mph /  3.2 km/h 4.0 mph /  6.4 km/h 52 % 0.00 in /  0 mm
14:51 88.8 °F /  31.6 °C 68.3 °F /  20.2 °C 29.88 in /  1011.7 hPa NNW 2.0 mph /  3.2 km/h 6.0 mph /  9.7 km/h 51 % 0.00 in /  0 mm
14:56 88.8 °F /  31.6 °C 68.9 °F /  20.5 °C 29.88 in /  1011.7 hPa NNW 1.0 mph /  1.6 km/h 6.0 mph /  9.7 km/h 52 % 0.00 in /  0 mm
15:01 88.7 °F /  31.5 °C 67.7 °F /  19.8 °C 29.88 in /  1011.7 hPa WNW 1.6 mph /  2.6 km/h 6.9 mph /  11.1 km/h 50 % 0.00 in /  0 mm
15:06 88.9 °F /  31.6 °C 68.4 °F /  20.2 °C 29.88 in /  1011.7 hPa WNW 4.1 mph /  6.6 km/h 5.8 mph /  9.3 km/h 51 % 0.00 in /  0 mm
15:11 88.9 °F /  31.6 °C 67.9 °F /  19.9 °C 29.88 in /  1011.7 hPa NNW 2.0 mph /  3.2 km/h 4.6 mph /  7.4 km/h 50 % 0.00 in /  0 mm
15:16 89.0 °F /  31.7 °C 67.9 °F /  19.9 °C 29.88 in /  1011.7 hPa NNE 1.3 mph /  2.1 km/h 4.0 mph /  6.4 km/h 50 % 0.00 in /  0 mm
15:21 88.9 °F /  31.6 °C 68.4 °F /  20.2 °C 29.88 in /  1011.7 hPa North 2.5 mph /  4 km/h 4.6 mph /  7.4 km/h 51 % 0.00 in /  0 mm
15:26 88.7 °F /  31.5 °C 67.7 °F /  19.8 °C 29.88 in /  1011.7 hPa West 3.2 mph /  5.1 km/h 4.6 mph /  7.4 km/h 50 % 0.00 in /  0 mm
15:31 88.8 °F /  31.6 °C 67.8 °F /  19.9 °C 29.88 in /  1011.7 hPa WNW 2.6 mph /  4.2 km/h 4.6 mph /  7.4 km/h 50 % 0.00 in /  0 mm
15:36 88.7 °F /  31.5 °C 67.7 °F /  19.8 °C 29.88 in /  1011.7 hPa West 3.6 mph /  5.8 km/h 6.0 mph /  9.7 km/h 50 % 0.00 in /  0 mm
15:41 88.8 °F /  31.6 °C 68.3 °F /  20.2 °C 29.88 in /  1011.7 hPa NW 0.8 mph /  1.3 km/h 3.5 mph /  5.6 km/h 51 % 0.00 in /  0 mm
15:46 89.0 °F /  31.7 °C 68.5 °F /  20.3 °C 29.88 in /  1011.7 hPa WNW 2.4 mph /  3.9 km/h 3.5 mph /  5.6 km/h 51 % 0.00 in /  0 mm
15:51 89.1 °F /  31.7 °C 68.6 °F /  20.3 °C 29.88 in /  1011.7 hPa NW 1.2 mph /  1.9 km/h 3.5 mph /  5.6 km/h 51 % 0.00 in /  0 mm
15:56 89.1 °F /  31.7 °C 67.5 °F /  19.7 °C 29.89 in /  1012.1 hPa North 0.8 mph /  1.3 km/h 3.5 mph /  5.6 km/h 49 % 0.00 in /  0 mm
16:01 89.1 °F /  31.7 °C 66.2 °F /  19 °C 29.89 in /  1012.1 hPa NW 3.8 mph /  6.1 km/h 8.1 mph /  13 km/h 47 % 0.00 in /  0 mm
16:06 89.0 °F /  31.7 °C 66.2 °F /  19 °C 29.89 in /  1012.1 hPa WSW 2.7 mph /  4.3 km/h 3.5 mph /  5.6 km/h 47 % 0.00 in /  0 mm
16:12 89.0 °F /  31.7 °C 65.5 °F /  18.6 °C 29.89 in /  1012.1 hPa NW 0.8 mph /  1.3 km/h 2.3 mph /  3.7 km/h 46 % 0.00 in /  0 mm
16:17 88.9 °F /  31.6 °C 66.1 °F /  18.9 °C 29.89 in /  1012.1 hPa NE 1.0 mph /  1.6 km/h 3.5 mph /  5.6 km/h 47 % 0.00 in /  0 mm
16:22 88.7 °F /  31.5 °C 67.1 °F /  19.5 °C 29.89 in /  1012.1 hPa NW 1.7 mph /  2.7 km/h 3.5 mph /  5.6 km/h 49 % 0.00 in /  0 mm
16:27 88.3 °F /  31.3 °C 66.1 °F /  18.9 °C 29.89 in /  1012.1 hPa NW 0.8 mph /  1.3 km/h 3.5 mph /  5.6 km/h 48 % 0.00 in /  0 mm
16:32 88.2 °F /  31.2 °C 64.8 °F /  18.2 °C 29.89 in /  1012.1 hPa West 0.9 mph /  1.4 km/h 4.6 mph /  7.4 km/h 46 % 0.00 in /  0 mm
16:37 88.2 °F /  31.2 °C 66.0 °F /  18.9 °C 29.89 in /  1012.1 hPa West 3.8 mph /  6.1 km/h 6.0 mph /  9.7 km/h 48 % 0.00 in /  0 mm
16:42 88.2 °F /  31.2 °C 65.4 °F /  18.6 °C 29.89 in /  1012.1 hPa WSW 2.7 mph /  4.3 km/h 3.5 mph /  5.6 km/h 47 % 0.00 in /  0 mm
16:47 88.2 °F /  31.2 °C 65.4 °F /  18.6 °C 29.89 in /  1012.1 hPa WNW 1.2 mph /  1.9 km/h 3.5 mph /  5.6 km/h 47 % 0.00 in /  0 mm
16:52 88.0 °F /  31.1 °C 64.6 °F /  18.1 °C 29.89 in /  1012.1 hPa NNW 1.0 mph /  1.6 km/h 3.5 mph /  5.6 km/h 46 % 0.00 in /  0 mm
16:57 87.7 °F /  30.9 °C 66.2 °F /  19 °C 29.90 in /  1012.4 hPa Calm   4.6 mph /  7.4 km/h 49 % 0.00 in /  0 mm
17:02 87.2 °F /  30.7 °C 64.5 °F /  18.1 °C 29.89 in /  1012.1 hPa WNW 1.0 mph /  1.6 km/h 2.3 mph /  3.7 km/h 47 % 0.00 in /  0 mm
17:07 86.9 °F /  30.5 °C 64.8 °F /  18.2 °C 29.89 in /  1012.1 hPa West 2.1 mph /  3.4 km/h 3.5 mph /  5.6 km/h 48 % 0.00 in /  0 mm
17:12 86.8 °F /  30.4 °C 64.2 °F /  17.9 °C 29.90 in /  1012.4 hPa WNW 1.4 mph /  2.3 km/h 3.5 mph /  5.6 km/h 47 % 0.00 in /  0 mm
17:17 86.5 °F /  30.3 °C 64.5 °F /  18.1 °C 29.90 in /  1012.4 hPa NW 1.9 mph /  3.1 km/h 3.5 mph /  5.6 km/h 48 % 0.00 in /  0 mm
17:22 86.2 °F /  30.1 °C 64.8 °F /  18.2 °C 29.90 in /  1012.4 hPa Calm   2.3 mph /  3.7 km/h 49 % 0.00 in /  0 mm
17:27 86.0 °F /  30 °C 64.6 °F /  18.1 °C 29.90 in /  1012.4 hPa NNW 1.1 mph /  1.8 km/h 2.3 mph /  3.7 km/h 49 % 0.00 in /  0 mm
17:32 85.6 °F /  29.8 °C 64.2 °F /  17.9 °C 29.90 in /  1012.4 hPa West 1.0 mph /  1.6 km/h 3.5 mph /  5.6 km/h 49 % 0.00 in /  0 mm
17:37 85.4 °F /  29.7 °C 64.6 °F /  18.1 °C 29.90 in /  1012.4 hPa WNW 0.1 mph /  0.2 km/h 1.2 mph /  1.9 km/h 50 % 0.00 in /  0 mm
17:42 85.1 °F /  29.5 °C 65.5 °F /  18.6 °C 29.90 in /  1012.4 hPa Calm   2.3 mph /  3.7 km/h 52 % 0.00 in /  0 mm
17:47 84.9 °F /  29.4 °C 64.8 °F /  18.2 °C 29.90 in /  1012.4 hPa WNW 1.8 mph /  2.9 km/h 3.5 mph /  5.6 km/h 51 % 0.00 in /  0 mm
17:52 84.6 °F /  29.2 °C 65.0 °F /  18.3 °C 29.91 in /  1012.8 hPa West 1.4 mph /  2.3 km/h 3.5 mph /  5.6 km/h 52 % 0.00 in /  0 mm
17:57 84.3 °F /  29.1 °C 65.3 °F /  18.5 °C 29.90 in /  1012.4 hPa West 0.3 mph /  0.5 km/h 3.5 mph /  5.6 km/h 53 % 0.00 in /  0 mm
18:02 84.0 °F /  28.9 °C 65.6 °F /  18.7 °C 29.91 in /  1012.8 hPa West 0.3 mph /  0.5 km/h 1.2 mph /  1.9 km/h 54 % 0.00 in /  0 mm
18:07 83.8 °F /  28.8 °C 65.4 °F /  18.6 °C 29.91 in /  1012.8 hPa Calm     54 % 0.00 in /  0 mm
18:13 83.6 °F /  28.7 °C 65.2 °F /  18.4 °C 29.91 in /  1012.8 hPa WSW 1.9 mph /  3.1 km/h 3.5 mph /  5.6 km/h 54 % 0.00 in /  0 mm
18:18 83.3 °F /  28.5 °C 64.9 °F /  18.3 °C 29.90 in /  1012.4 hPa WNW 0.4 mph /  0.6 km/h 3.5 mph /  5.6 km/h 54 % 0.00 in /  0 mm
18:23 83.1 °F /  28.4 °C 64.7 °F /  18.2 °C 29.91 in /  1012.8 hPa WNW 0.3 mph /  0.5 km/h 2.3 mph /  3.7 km/h 54 % 0.00 in /  0 mm
18:28 83.0 °F /  28.3 °C 65.2 °F /  18.4 °C 29.91 in /  1012.8 hPa WNW 0.1 mph /  0.2 km/h 1.2 mph /  1.9 km/h 55 % 0.00 in /  0 mm
18:33 82.9 °F /  28.3 °C 65.6 °F /  18.7 °C 29.91 in /  1012.8 hPa WNW 0.1 mph /  0.2 km/h   56 % 0.00 in /  0 mm
18:38 82.7 °F /  28.2 °C 64.9 °F /  18.3 °C 29.91 in /  1012.8 hPa Calm   1.2 mph /  1.9 km/h 55 % 0.00 in /  0 mm
18:43 82.5 °F /  28.1 °C 65.2 °F /  18.4 °C 29.91 in /  1012.8 hPa Calm     56 % 0.00 in /  0 mm
18:48 82.3 °F /  27.9 °C 65.5 °F /  18.6 °C 29.91 in /  1012.8 hPa Calm     57 % 0.00 in /  0 mm
18:53 82.1 °F /  27.8 °C 65.9 °F /  18.8 °C 29.91 in /  1012.8 hPa Calm   1.2 mph /  1.9 km/h 58 % 0.00 in /  0 mm
18:58 81.9 °F /  27.7 °C 65.7 °F /  18.7 °C 29.91 in /  1012.8 hPa WNW 0.4 mph /  0.6 km/h 1.2 mph /  1.9 km/h 58 % 0.00 in /  0 mm
19:03 81.7 °F /  27.6 °C 65.5 °F /  18.6 °C 29.91 in /  1012.8 hPa Calm     58 % 0.00 in /  0 mm
19:08 81.5 °F /  27.5 °C 65.8 °F /  18.8 °C 29.91 in /  1012.8 hPa Calm     59 % 0.00 in /  0 mm
19:13 81.3 °F /  27.4 °C 66.1 °F /  18.9 °C 29.91 in /  1012.8 hPa Calm     60 % 0.00 in /  0 mm
19:18 81.1 °F /  27.3 °C 66.4 °F /  19.1 °C 29.91 in /  1012.8 hPa WNW 0.1 mph /  0.2 km/h 1.2 mph /  1.9 km/h 61 % 0.00 in /  0 mm
19:23 80.9 °F /  27.2 °C 65.7 °F /  18.7 °C 29.91 in /  1012.8 hPa Calm     60 % 0.00 in /  0 mm
19:28 80.6 °F /  27 °C 66.4 °F /  19.1 °C 29.91 in /  1012.8 hPa Calm     62 % 0.00 in /  0 mm
19:33 80.4 °F /  26.9 °C 66.6 °F /  19.2 °C 29.91 in /  1012.8 hPa Calm     63 % 0.00 in /  0 mm
19:38 80.1 °F /  26.7 °C 66.8 °F /  19.3 °C 29.92 in /  1013.1 hPa Calm     64 % 0.00 in /  0 mm
19:43 79.8 °F /  26.6 °C 67.0 °F /  19.4 °C 29.92 in /  1013.1 hPa Calm     65 % 0.00 in /  0 mm
19:48 79.5 °F /  26.4 °C 66.7 °F /  19.3 °C 29.92 in /  1013.1 hPa Calm     65 % 0.00 in /  0 mm
19:53 79.1 °F /  26.2 °C 67.2 °F /  19.6 °C 29.92 in /  1013.1 hPa Calm     67 % 0.00 in /  0 mm
19:58 78.7 °F /  25.9 °C 67.2 °F /  19.6 °C 29.92 in /  1013.1 hPa Calm     68 % 0.00 in /  0 mm
20:03 78.4 °F /  25.8 °C 67.4 °F /  19.7 °C 29.92 in /  1013.1 hPa Calm     69 % 0.00 in /  0 mm
20:08 78.0 °F /  25.6 °C 67.4 °F /  19.7 °C 29.92 in /  1013.1 hPa Calm     70 % 0.00 in /  0 mm
20:13 77.6 °F /  25.3 °C 67.4 °F /  19.7 °C 29.92 in /  1013.1 hPa Calm     71 % 0.00 in /  0 mm
20:18 77.3 °F /  25.2 °C 67.2 °F /  19.6 °C 29.93 in /  1013.4 hPa Calm   1.2 mph /  1.9 km/h 71 % 0.00 in /  0 mm
20:23 77.0 °F /  25 °C 66.9 °F /  19.4 °C 29.93 in /  1013.4 hPa WNW 0.1 mph /  0.2 km/h   71 % 0.00 in /  0 mm
20:28 76.6 °F /  24.8 °C 66.9 °F /  19.4 °C 29.93 in /  1013.4 hPa Calm     72 % 0.00 in /  0 mm
20:33 76.2 °F /  24.6 °C 66.9 °F /  19.4 °C 29.93 in /  1013.4 hPa Calm     73 % 0.00 in /  0 mm
20:38 75.9 °F /  24.4 °C 66.6 °F /  19.2 °C 29.93 in /  1013.4 hPa Calm     73 % 0.00 in /  0 mm
20:43 75.6 °F /  24.2 °C 66.7 °F /  19.3 °C 29.93 in /  1013.4 hPa Calm     74 % 0.00 in /  0 mm
20:48 75.2 °F /  24 °C 66.7 °F /  19.3 °C 29.93 in /  1013.4 hPa Calm     75 % 0.00 in /  0 mm
20:53 74.8 °F /  23.8 °C 66.0 °F /  18.9 °C 29.94 in /  1013.8 hPa Calm     74 % 0.00 in /  0 mm
20:58 74.5 °F /  23.6 °C 66.1 °F /  18.9 °C 29.94 in /  1013.8 hPa Calm   1.0 mph /  1.6 km/h 75 % 0.00 in /  0 mm
21:03 74.2 °F /  23.4 °C 66.1 °F /  18.9 °C 29.94 in /  1013.8 hPa WNW 0.1 mph /  0.2 km/h 1.2 mph /  1.9 km/h 76 % 0.00 in /  0 mm
21:08 73.9 °F /  23.3 °C 65.9 °F /  18.8 °C 29.94 in /  1013.8 hPa Calm     76 % 0.00 in /  0 mm
21:09 73.8 °F /  23.2 °C 65.8 °F /  18.8 °C 29.94 in /  1013.8 hPa Calm     76 % 0.00 in /  0 mm
21:14 73.6 °F /  23.1 °C 65.9 °F /  18.8 °C 29.94 in /  1013.8 hPa Calm   1.2 mph /  1.9 km/h 77 % 0.00 in /  0 mm
21:19 73.3 °F /  22.9 °C 65.7 °F /  18.7 °C 29.94 in /  1013.8 hPa Calm     77 % 0.00 in /  0 mm
21:24 73.1 °F /  22.8 °C 65.5 °F /  18.6 °C 29.94 in /  1013.8 hPa Calm     77 % 0.00 in /  0 mm
21:29 72.9 °F /  22.7 °C 65.6 °F /  18.7 °C 29.94 in /  1013.8 hPa Calm     78 % 0.00 in /  0 mm
21:34 72.7 °F /  22.6 °C 65.4 °F /  18.6 °C 29.94 in /  1013.8 hPa Calm     78 % 0.00 in /  0 mm
21:39 72.5 °F /  22.5 °C 65.2 °F /  18.4 °C 29.94 in /  1013.8 hPa Calm     78 % 0.00 in /  0 mm
21:45 72.3 °F /  22.4 °C 65.4 °F /  18.6 °C 29.94 in /  1013.8 hPa Calm     79 % 0.00 in /  0 mm
21:50 72.2 °F /  22.3 °C 65.3 °F /  18.5 °C 29.94 in /  1013.8 hPa Calm     79 % 0.00 in /  0 mm
21:55 72.0 °F /  22.2 °C 65.1 °F /  18.4 °C 29.94 in /  1013.8 hPa Calm     79 % 0.00 in /  0 mm
22:00 71.8 °F /  22.1 °C 64.9 °F /  18.3 °C 29.94 in /  1013.8 hPa Calm     79 % 0.00 in /  0 mm
22:05 71.6 °F /  22 °C 65.1 °F /  18.4 °C 29.94 in /  1013.8 hPa Calm     80 % 0.00 in /  0 mm
22:10 71.4 °F /  21.9 °C 65.3 °F /  18.5 °C 29.95 in /  1014.1 hPa Calm   1.2 mph /  1.9 km/h 81 % 0.00 in /  0 mm
22:15 71.2 °F /  21.8 °C 65.4 °F /  18.6 °C 29.95 in /  1014.1 hPa WNW 0.1 mph /  0.2 km/h 1.2 mph /  1.9 km/h 82 % 0.00 in /  0 mm
22:20 71.0 °F /  21.7 °C 64.9 °F /  18.3 °C 29.95 in /  1014.1 hPa Calm     81 % 0.00 in /  0 mm
22:25 70.8 °F /  21.6 °C 65.0 °F /  18.3 °C 29.95 in /  1014.1 hPa Calm     82 % 0.00 in /  0 mm
22:30 70.7 °F /  21.5 °C 64.9 °F /  18.3 °C 29.95 in /  1014.1 hPa Calm     82 % 0.00 in /  0 mm
22:35 70.5 °F /  21.4 °C 64.7 °F /  18.2 °C 29.95 in /  1014.1 hPa Calm     82 % 0.00 in /  0 mm
22:40 70.3 °F /  21.3 °C 64.5 °F /  18.1 °C 29.95 in /  1014.1 hPa Calm     82 % 0.00 in /  0 mm
22:45 70.2 °F /  21.2 °C 64.4 °F /  18 °C 29.95 in /  1014.1 hPa Calm     82 % 0.00 in /  0 mm
22:50 70.1 °F /  21.2 °C 64.7 °F /  18.2 °C 29.95 in /  1014.1 hPa Calm     83 % 0.00 in /  0 mm
22:55 69.9 °F /  21.1 °C 64.5 °F /  18.1 °C 29.96 in /  1014.4 hPa Calm     83 % 0.00 in /  0 mm
23:00 69.7 °F /  20.9 °C 64.3 °F /  17.9 °C 29.96 in /  1014.4 hPa Calm     83 % 0.00 in /  0 mm
23:05 69.6 °F /  20.9 °C 64.5 °F /  18.1 °C 29.96 in /  1014.4 hPa Calm     84 % 0.00 in /  0 mm
23:10 69.4 °F /  20.8 °C 64.0 °F /  17.8 °C 29.96 in /  1014.4 hPa Calm     83 % 0.00 in /  0 mm
23:15 69.3 °F /  20.7 °C 64.3 °F /  17.9 °C 29.96 in /  1014.4 hPa Calm     84 % 0.00 in /  0 mm
23:20 69.1 °F /  20.6 °C 64.4 °F /  18 °C 29.96 in /  1014.4 hPa Calm     85 % 0.00 in /  0 mm
23:25 69.0 °F /  20.6 °C 64.3 °F /  17.9 °C 29.96 in /  1014.4 hPa Calm     85 % 0.00 in /  0 mm
23:30 68.9 °F /  20.5 °C 64.2 °F /  17.9 °C 29.96 in /  1014.4 hPa Calm     85 % 0.00 in /  0 mm
23:35 68.8 °F /  20.4 °C 64.4 °F /  18 °C 29.97 in /  1014.8 hPa Calm     86 % 0.00 in /  0 mm
23:41 68.6 °F /  20.3 °C 64.2 °F /  17.9 °C 29.97 in /  1014.8 hPa Calm     86 % 0.00 in /  0 mm
23:46 68.5 °F /  20.3 °C 64.2 °F /  17.9 °C 29.97 in /  1014.8 hPa Calm     86 % 0.00 in /  0 mm
23:51 68.5 °F /  20.3 °C 64.1 °F /  17.8 °C 29.97 in /  1014.8 hPa Calm     86 % 0.00 in /  0 mm
23:56 68.3 °F /  20.2 °C 64.0 °F /  17.8 °C 29.97 in /  1014.8 hPa Calm     86 % 0.00 in /  0 mm
Crab Meadow Weather
Compliments of Weather Underground - 3 mb

Script developed by  Jim McMurry - jmcmurry@mwt.net Adapted for the template by  Wim van der Kuil - Leuven-Template.eu

Weather Terms: Severe Local Storms - These are short-fused, small scale hazardous weather or hydrologic events produced by thunderstorms, including large hail, damaging winds, tornadoes, and flash floods.